Strathroy, Canada
Current Conditions -  °F | °C
As of 6:00 PM on Saturday 25 Oct 2014 (Local Time) from CYXU Reporting Station
Few Clouds Few Clouds  
Wind Chill: 61°   Ceiling: Unl
Heat Index: 61°   Visibility: 15mi
Dew Point: 45°   Wind: 12mph
Humidity: 55%   Direction: 270°W
Pressure: 29.66"   Gusts: 21mph
Location:  42.96°N, 81.62°W
Report Text: CYXU 252200Z 27010G18KT 15SM FEW045 FEW220 16/07 A2966 RMK SC1CI1 SLP045 DENSITY ALT 1500FT
Loading
Personal Weather Stations






























Interactive Weather Map
Tropical Storm Tracking
New forecast layout! Learn more

10-Day Weather Forecast

Advertisements
Track Severe Weather on mobile